Anzahl Datensätze: 286
min. Temperatur: -2.7 °C
max. Temperatur: 13.1 °C
max. Windgeschwindigkeit: 16.2 km/h
Niederschlagsumme: 0.0 mm
| Datum |
Zeit |
Temp °C |
Feuchte % |
Taupunkt °C |
Luftdruck hPa |
Wind km/h |
Windrichtung |
Strahlung w/m² |
Niederschlag mm |
|---|---|---|---|---|---|---|---|---|---|
| 03.03.2025 | 00:03 | 0.0 | 85 | -2.2 | 1030.3 | 0.0 | NNO | 0 | 0.0 |
| 03.03.2025 | 00:08 | -0.1 | 85 | -2.3 | 1030.3 | 0.0 | NNO | 0 | 0.0 |
| 03.03.2025 | 00:13 | -0.2 | 84 | -2.6 | 1030.4 | 1.4 | NNO | 0 | 0.0 |
| 03.03.2025 | 00:18 | -0.3 | 84 | -2.7 | 1030.3 | 1.4 | NNO | 0 | 0.0 |
| 03.03.2025 | 00:23 | -0.4 | 85 | -2.6 | 1030.3 | 3.2 | NNO | 0 | 0.0 |
| 03.03.2025 | 00:28 | -0.6 | 85 | -2.8 | 1030.3 | 1.4 | NNO | 0 | 0.0 |
| 03.03.2025 | 00:33 | -0.7 | 85 | -2.9 | 1030.2 | 1.4 | NNO | 0 | 0.0 |
| 03.03.2025 | 00:38 | -0.8 | 85 | -3.0 | 1030.3 | 1.4 | NNO | 0 | 0.0 |
| 03.03.2025 | 00:43 | -0.7 | 86 | -2.7 | 1030.4 | 0.0 | NNO | 0 | 0.0 |
| 03.03.2025 | 00:48 | -0.7 | 86 | -2.7 | 1030.4 | 0.0 | NNO | 0 | 0.0 |
| 03.03.2025 | 00:53 | -0.7 | 86 | -2.7 | 1030.5 | 1.4 | NNO | 0 | 0.0 |
| 03.03.2025 | 00:58 | -0.7 | 86 | -2.7 | 1030.4 | 1.4 | NNO | 0 | 0.0 |
| 03.03.2025 | 01:03 | -0.7 | 86 | -2.7 | 1030.3 | 1.4 | NNO | 0 | 0.0 |
| 03.03.2025 | 01:08 | -0.8 | 86 | -2.8 | 1030.3 | 1.4 | NNO | 0 | 0.0 |
| 03.03.2025 | 01:13 | -0.9 | 86 | -2.9 | 1030.2 | 1.4 | NNW | 0 | 0.0 |
| 03.03.2025 | 01:18 | -0.9 | 86 | -2.9 | 1030.2 | 3.2 | NW | 0 | 0.0 |
| 03.03.2025 | 01:23 | -1.0 | 86 | -3.0 | 1030.1 | 1.4 | NW | 0 | 0.0 |
| 03.03.2025 | 01:28 | -1.0 | 87 | -2.9 | 1030.1 | 1.4 | NO | 0 | 0.0 |
| 03.03.2025 | 01:33 | -1.1 | 87 | -3.0 | 1030.1 | 3.2 | NW | 0 | 0.0 |
| 03.03.2025 | 01:38 | -1.2 | 86 | -3.2 | 1030.1 | 1.4 | NNW | 0 | 0.0 |
| 03.03.2025 | 01:43 | -1.3 | 87 | -3.2 | 1030.1 | 3.2 | NNW | 0 | 0.0 |
| 03.03.2025 | 01:48 | -1.2 | 87 | -3.1 | 1030.0 | 3.2 | NO | 0 | 0.0 |
| 03.03.2025 | 01:53 | -0.9 | 88 | -2.6 | 1029.9 | 3.2 | NO | 0 | 0.0 |
| 03.03.2025 | 01:58 | -0.9 | 87 | -2.8 | 1029.9 | 1.4 | NNO | 0 | 0.0 |
| 03.03.2025 | 02:03 | -0.8 | 87 | -2.7 | 1029.9 | 3.2 | NNO | 0 | 0.0 |
| 03.03.2025 | 02:09 | -0.9 | 87 | -2.8 | 1029.9 | 1.4 | N | 0 | 0.0 |
| 03.03.2025 | 02:14 | -1.0 | 87 | -2.9 | 1029.8 | 0.0 | N | 0 | 0.0 |
| 03.03.2025 | 02:19 | -1.1 | 87 | -3.0 | 1029.8 | 3.2 | NO | 0 | 0.0 |
| 03.03.2025 | 02:24 | -1.1 | 87 | -3.0 | 1029.7 | 3.2 | NNO | 0 | 0.0 |
| 03.03.2025 | 02:29 | -1.2 | 87 | -3.1 | 1029.7 | 4.7 | NNO | 0 | 0.0 |
| 03.03.2025 | 02:34 | -1.3 | 87 | -3.2 | 1029.7 | 3.2 | NNO | 0 | 0.0 |
| 03.03.2025 | 02:39 | -1.2 | 87 | -3.1 | 1029.6 | 3.2 | NO | 0 | 0.0 |
| 03.03.2025 | 02:44 | -1.2 | 88 | -2.9 | 1029.6 | 3.2 | NO | 0 | 0.0 |
| 03.03.2025 | 02:49 | -1.1 | 88 | -2.8 | 1029.6 | 3.2 | N | 0 | 0.0 |
| 03.03.2025 | 02:54 | -1.1 | 88 | -2.8 | 1029.5 | 1.4 | NNO | 0 | 0.0 |
| 03.03.2025 | 02:59 | -1.2 | 87 | -3.1 | 1029.5 | 0.0 | N | 0 | 0.0 |
| 03.03.2025 | 03:04 | -1.3 | 88 | -3.0 | 1029.4 | 3.2 | NNO | 0 | 0.0 |
| 03.03.2025 | 03:09 | -1.4 | 87 | -3.3 | 1029.4 | 1.4 | NO | 0 | 0.0 |
| 03.03.2025 | 03:14 | -1.5 | 87 | -3.4 | 1029.4 | 0.0 | N | 0 | 0.0 |
| 03.03.2025 | 03:19 | -1.6 | 88 | -3.3 | 1029.4 | 0.0 | NO | 0 | 0.0 |
| 03.03.2025 | 03:24 | -1.5 | 88 | -3.2 | 1029.2 | 1.4 | NNW | 0 | 0.0 |
| 03.03.2025 | 03:29 | -1.5 | 88 | -3.2 | 1029.2 | 1.4 | NW | 0 | 0.0 |
| 03.03.2025 | 03:34 | -1.6 | 88 | -3.3 | 1029.1 | 1.4 | NNW | 0 | 0.0 |
| 03.03.2025 | 03:39 | -1.5 | 88 | -3.2 | 1029.1 | 1.4 | N | 0 | 0.0 |
| 03.03.2025 | 03:44 | -1.4 | 88 | -3.1 | 1029.0 | 1.4 | N | 0 | 0.0 |
| 03.03.2025 | 03:49 | -1.4 | 88 | -3.1 | 1029.0 | 1.4 | NNO | 0 | 0.0 |
| 03.03.2025 | 03:54 | -1.4 | 88 | -3.1 | 1029.0 | 3.2 | NNO | 0 | 0.0 |
| 03.03.2025 | 03:59 | -1.3 | 88 | -3.0 | 1028.9 | 1.4 | NNO | 0 | 0.0 |
| 03.03.2025 | 04:04 | -1.3 | 88 | -3.0 | 1028.8 | 3.2 | N | 0 | 0.0 |
| 03.03.2025 | 04:09 | -1.2 | 88 | -2.9 | 1028.7 | 4.7 | NNO | 0 | 0.0 |
| 03.03.2025 | 04:14 | -1.2 | 88 | -2.9 | 1028.6 | 3.2 | NNO | 0 | 0.0 |
| 03.03.2025 | 04:19 | -1.3 | 88 | -3.0 | 1028.6 | 1.4 | NNO | 0 | 0.0 |
| 03.03.2025 | 04:24 | -1.3 | 88 | -3.0 | 1028.7 | 3.2 | NW | 0 | 0.0 |
| 03.03.2025 | 04:29 | -1.3 | 88 | -3.0 | 1028.6 | 1.4 | NNW | 0 | 0.0 |
| 03.03.2025 | 04:34 | -1.3 | 88 | -3.0 | 1028.8 | 0.0 | NNW | 0 | 0.0 |
| 03.03.2025 | 04:39 | -1.4 | 88 | -3.1 | 1028.8 | 0.0 | NNW | 0 | 0.0 |
| 03.03.2025 | 04:44 | -1.4 | 88 | -3.1 | 1028.8 | 0.0 | NNW | 0 | 0.0 |
| 03.03.2025 | 04:49 | -1.5 | 88 | -3.2 | 1028.9 | 0.0 | NNW | 0 | 0.0 |
| 03.03.2025 | 04:54 | -1.6 | 88 | -3.3 | 1028.9 | 0.0 | NNW | 0 | 0.0 |
| 03.03.2025 | 05:00 | -1.7 | 88 | -3.4 | 1029.0 | 0.0 | NNW | 0 | 0.0 |
| 03.03.2025 | 05:05 | -1.8 | 88 | -3.5 | 1029.0 | 1.4 | NNW | 0 | 0.0 |
| 03.03.2025 | 05:10 | -1.9 | 88 | -3.6 | 1029.0 | 3.2 | NNW | 0 | 0.0 |
| 03.03.2025 | 05:15 | -1.9 | 88 | -3.6 | 1029.0 | 1.4 | NNW | 0 | 0.0 |
| 03.03.2025 | 05:20 | -2.2 | 88 | -3.9 | 1028.9 | 0.0 | NNW | 0 | 0.0 |
| 03.03.2025 | 05:25 | -2.4 | 88 | -4.1 | 1028.8 | 3.2 | N | 0 | 0.0 |
| 03.03.2025 | 05:30 | -2.5 | 88 | -4.2 | 1028.9 | 1.4 | N | 0 | 0.0 |
| 03.03.2025 | 05:35 | -2.5 | 88 | -4.2 | 1028.9 | 1.4 | N | 0 | 0.0 |
| 03.03.2025 | 05:40 | -2.5 | 88 | -4.2 | 1028.9 | 3.2 | NNW | 0 | 0.0 |
| 03.03.2025 | 05:45 | -2.3 | 89 | -3.9 | 1028.9 | 4.7 | N | 0 | 0.0 |
| 03.03.2025 | 05:50 | -1.9 | 89 | -3.5 | 1029.0 | 1.4 | N | 0 | 0.0 |
| 03.03.2025 | 05:55 | -1.9 | 89 | -3.5 | 1029.0 | 1.4 | NNO | 0 | 0.0 |
| 03.03.2025 | 06:00 | -1.9 | 89 | -3.5 | 1029.0 | 1.4 | N | 0 | 0.0 |
| 03.03.2025 | 06:05 | -1.9 | 89 | -3.5 | 1029.0 | 0.0 | N | 0 | 0.0 |
| 03.03.2025 | 06:10 | -2.1 | 89 | -3.7 | 1029.1 | 0.0 | N | 0 | 0.0 |
| 03.03.2025 | 06:15 | -2.1 | 89 | -3.7 | 1029.1 | 1.4 | NNO | 0 | 0.0 |
| 03.03.2025 | 06:20 | -2.2 | 88 | -3.9 | 1029.1 | 1.4 | NNW | 0 | 0.0 |
| 03.03.2025 | 06:25 | -2.3 | 88 | -4.0 | 1029.2 | 1.4 | NNW | 0 | 0.0 |
| 03.03.2025 | 06:30 | -2.4 | 89 | -4.0 | 1029.2 | 0.0 | NNW | 0 | 0.0 |
| 03.03.2025 | 06:35 | -2.4 | 89 | -4.0 | 1029.2 | 1.4 | N | 0 | 0.0 |
| 03.03.2025 | 06:40 | -2.4 | 89 | -4.0 | 1029.2 | 1.4 | NNO | 0 | 0.0 |
| 03.03.2025 | 06:45 | -2.4 | 89 | -4.0 | 1029.2 | 3.2 | NNO | 0 | 0.0 |
| 03.03.2025 | 06:50 | -2.4 | 89 | -4.0 | 1029.2 | 3.2 | NW | 0 | 0.0 |
| 03.03.2025 | 06:55 | -2.7 | 89 | -4.3 | 1029.2 | 1.4 | NNW | 0 | 0.0 |
| 03.03.2025 | 07:00 | -2.7 | 89 | -4.3 | 1029.3 | 3.2 | NNO | 0 | 0.0 |
| 03.03.2025 | 07:05 | -2.6 | 89 | -4.2 | 1029.4 | 4.7 | NNO | 0 | 0.0 |
| 03.03.2025 | 07:10 | -2.5 | 89 | -4.1 | 1029.3 | 3.2 | NNO | 0 | 0.0 |
| 03.03.2025 | 07:15 | -2.5 | 89 | -4.1 | 1029.4 | 3.2 | N | 5 | 0.0 |
| 03.03.2025 | 07:20 | -2.5 | 89 | -4.1 | 1029.4 | 1.4 | N | 7 | 0.0 |
| 03.03.2025 | 07:25 | -2.6 | 89 | -4.2 | 1029.4 | 4.7 | NNO | 9 | 0.0 |
| 03.03.2025 | 07:30 | -2.4 | 90 | -3.8 | 1029.5 | 0.0 | N | 11 | 0.0 |
| 03.03.2025 | 07:35 | -2.4 | 90 | -3.8 | 1029.5 | 3.2 | NNO | 14 | 0.0 |
| 03.03.2025 | 07:40 | -2.6 | 89 | -4.2 | 1029.6 | 1.4 | NO | 16 | 0.0 |
| 03.03.2025 | 07:45 | -2.5 | 90 | -3.9 | 1029.6 | 3.2 | NNO | 18 | 0.0 |
| 03.03.2025 | 07:51 | -2.4 | 90 | -3.8 | 1029.7 | 1.4 | N | 19 | 0.0 |
| 03.03.2025 | 07:56 | -2.4 | 90 | -3.8 | 1029.8 | 1.4 | N | 21 | 0.0 |
| 03.03.2025 | 08:01 | -2.2 | 90 | -3.6 | 1029.9 | 1.4 | NNO | 23 | 0.0 |
| 03.03.2025 | 08:06 | -1.9 | 90 | -3.3 | 1029.9 | 0.0 | NNO | 54 | 0.0 |
| 03.03.2025 | 08:11 | -1.7 | 90 | -3.1 | 1029.9 | 1.4 | N | 90 | 0.0 |
| 03.03.2025 | 08:16 | -1.4 | 90 | -2.8 | 1030.0 | 0.0 | NNO | 113 | 0.0 |
| 03.03.2025 | 08:21 | -1.0 | 91 | -2.3 | 1030.0 | 4.7 | NNO | 128 | 0.0 |
| 03.03.2025 | 08:26 | -0.7 | 91 | -2.0 | 1030.1 | 6.5 | NNO | 144 | 0.0 |
| 03.03.2025 | 08:31 | -0.4 | 90 | -1.8 | 1030.1 | 3.2 | N | 160 | 0.0 |
| 03.03.2025 | 08:36 | -0.2 | 90 | -1.6 | 1030.1 | 4.7 | NNW | 174 | 0.0 |
| 03.03.2025 | 08:41 | 0.1 | 90 | -1.3 | 1030.0 | 4.7 | NNO | 178 | 0.0 |
| 03.03.2025 | 08:46 | 0.3 | 90 | -1.1 | 1030.1 | 4.7 | NO | 185 | 0.0 |
| 03.03.2025 | 08:51 | 0.5 | 89 | -1.1 | 1030.1 | 1.4 | NNW | 192 | 0.0 |
| 03.03.2025 | 08:56 | 0.8 | 89 | -0.8 | 1030.1 | 1.4 | NNO | 204 | 0.0 |
| 03.03.2025 | 09:01 | 1.1 | 89 | -0.5 | 1030.2 | 0.0 | N | 220 | 0.0 |
| 03.03.2025 | 09:06 | 1.3 | 89 | -0.3 | 1030.2 | 1.4 | NNO | 236 | 0.0 |
| 03.03.2025 | 09:11 | 1.7 | 88 | -0.1 | 1030.2 | 0.0 | NW | 253 | 0.0 |
| 03.03.2025 | 09:16 | 2.0 | 88 | 0.2 | 1030.3 | 1.4 | NW | 271 | 0.0 |
| 03.03.2025 | 09:21 | 2.3 | 88 | 0.5 | 1030.3 | 0.0 | NNW | 287 | 0.0 |
| 03.03.2025 | 09:26 | 2.6 | 88 | 0.8 | 1030.3 | 0.0 | NNW | 299 | 0.0 |
| 03.03.2025 | 09:31 | 2.9 | 87 | 1.0 | 1030.3 | 0.0 | NNO | 313 | 0.0 |
| 03.03.2025 | 09:36 | 3.2 | 85 | 0.9 | 1030.3 | 1.4 | NNO | 327 | 0.0 |
| 03.03.2025 | 09:41 | 3.5 | 84 | 1.1 | 1030.3 | 1.4 | NO | 341 | 0.0 |
| 03.03.2025 | 09:46 | 3.8 | 82 | 1.0 | 1030.4 | 1.4 | NO | 352 | 0.0 |
| 03.03.2025 | 09:51 | 4.1 | 81 | 1.1 | 1030.4 | 1.4 | NO | 366 | 0.0 |
| 03.03.2025 | 09:56 | 4.4 | 80 | 1.3 | 1030.4 | 1.4 | NO | 376 | 0.0 |
| 03.03.2025 | 10:01 | 4.6 | 79 | 1.3 | 1030.2 | 3.2 | O | 390 | 0.0 |
| 03.03.2025 | 10:06 | 4.9 | 78 | 1.4 | 1030.2 | 3.2 | ONO | 318 | 0.0 |
| 03.03.2025 | 10:11 | 5.2 | 77 | 1.5 | 1030.1 | 1.4 | O | 411 | 0.0 |
| 03.03.2025 | 10:16 | 5.5 | 76 | 1.6 | 1030.0 | 3.2 | NO | 422 | 0.0 |
| 03.03.2025 | 10:21 | 5.8 | 75 | 1.7 | 1029.8 | 1.4 | ONO | 432 | 0.0 |
| 03.03.2025 | 10:26 | 6.1 | 73 | 1.6 | 1029.8 | 4.7 | NO | 443 | 0.0 |
| 03.03.2025 | 10:31 | 6.3 | 72 | 1.6 | 1029.8 | 3.2 | ONO | 452 | 0.0 |
| 03.03.2025 | 10:37 | 6.4 | 70 | 1.3 | 1029.7 | 6.5 | ONO | 462 | 0.0 |
| 03.03.2025 | 10:42 | 6.6 | 70 | 1.5 | 1029.7 | 3.2 | O | 471 | 0.0 |
| 03.03.2025 | 10:47 | 6.8 | 70 | 1.7 | 1029.6 | 1.4 | ONO | 478 | 0.0 |
| 03.03.2025 | 10:52 | 7.1 | 69 | 1.8 | 1029.6 | 1.4 | OSO | 487 | 0.0 |
| 03.03.2025 | 10:57 | 7.4 | 69 | 2.1 | 1029.6 | 3.2 | OSO | 494 | 0.0 |
| 03.03.2025 | 11:02 | 7.9 | 64 | 1.5 | 1029.6 | 9.7 | OSO | 504 | 0.0 |
| 03.03.2025 | 11:07 | 8.3 | 61 | 1.2 | 1029.6 | 9.7 | ONO | 510 | 0.0 |
| 03.03.2025 | 11:12 | 8.6 | 59 | 1.0 | 1029.6 | 4.7 | O | 520 | 0.0 |
| 03.03.2025 | 11:17 | 8.7 | 58 | 0.9 | 1029.6 | 1.4 | O | 527 | 0.0 |
| 03.03.2025 | 11:22 | 8.9 | 58 | 1.1 | 1029.6 | 1.4 | SSO | 531 | 0.0 |
| 03.03.2025 | 11:27 | 9.2 | 58 | 1.4 | 1029.5 | 1.4 | ONO | 538 | 0.0 |
| 03.03.2025 | 11:32 | 9.4 | 57 | 1.3 | 1029.5 | 9.7 | O | 547 | 0.0 |
| 03.03.2025 | 11:37 | 9.6 | 56 | 1.2 | 1029.5 | 4.7 | ONO | 552 | 0.0 |
| 03.03.2025 | 11:42 | 9.7 | 56 | 1.3 | 1029.4 | 1.4 | O | 555 | 0.0 |
| 03.03.2025 | 11:47 | 9.9 | 52 | 0.5 | 1029.4 | 1.4 | OSO | 561 | 0.0 |
| 03.03.2025 | 11:52 | 10.0 | 52 | 0.6 | 1029.4 | 3.2 | SO | 566 | 0.0 |
| 03.03.2025 | 11:57 | 10.0 | 53 | 0.9 | 1029.4 | 1.4 | SSW | 570 | 0.0 |
| 03.03.2025 | 12:02 | 10.1 | 52 | 0.7 | 1029.4 | 1.4 | OSO | 573 | 0.0 |
| 03.03.2025 | 12:07 | 10.2 | 52 | 0.8 | 1029.4 | 3.2 | O | 575 | 0.0 |
| 03.03.2025 | 12:12 | 10.4 | 50 | 0.4 | 1029.4 | 6.5 | O | 580 | 0.0 |
| 03.03.2025 | 12:17 | 10.3 | 51 | 0.6 | 1029.4 | 7.9 | ONO | 578 | 0.0 |
| 03.03.2025 | 12:22 | 10.6 | 54 | 1.7 | 1029.5 | 1.4 | SSW | 541 | 0.0 |
| 03.03.2025 | 12:27 | 10.7 | 53 | 1.5 | 1029.4 | 3.2 | S | 443 | 0.0 |
| 03.03.2025 | 12:32 | 10.8 | 52 | 1.3 | 1029.4 | 3.2 | SW | 60 | 0.0 |
| 03.03.2025 | 12:37 | 10.9 | 51 | 1.2 | 1029.4 | 0.0 | W | 587 | 0.0 |
| 03.03.2025 | 12:42 | 11.0 | 50 | 1.0 | 1029.3 | 3.2 | N | 587 | 0.0 |
| 03.03.2025 | 12:47 | 11.1 | 49 | 0.8 | 1029.2 | 3.2 | NNO | 591 | 0.0 |
| 03.03.2025 | 12:52 | 11.1 | 46 | -0.1 | 1029.2 | 4.7 | NNO | 591 | 0.0 |
| 03.03.2025 | 12:57 | 11.1 | 48 | 0.5 | 1029.1 | 1.4 | NNW | 587 | 0.0 |
| 03.03.2025 | 13:02 | 11.2 | 46 | 0.0 | 1029.0 | 3.2 | ONO | 585 | 0.0 |
| 03.03.2025 | 13:07 | 11.2 | 48 | 0.6 | 1028.9 | 3.2 | ONO | 587 | 0.0 |
| 03.03.2025 | 13:12 | 11.3 | 48 | 0.7 | 1028.8 | 4.7 | NNO | 584 | 0.0 |
| 03.03.2025 | 13:18 | 11.2 | 49 | 0.9 | 1028.7 | 1.4 | NNO | 582 | 0.0 |
| 03.03.2025 | 13:23 | 11.3 | 48 | 0.7 | 1028.6 | 1.4 | NW | 578 | 0.0 |
| 03.03.2025 | 13:28 | 11.3 | 49 | 1.0 | 1028.5 | 3.2 | NNO | 577 | 0.0 |
| 03.03.2025 | 13:33 | 11.5 | 48 | 0.9 | 1028.5 | 3.2 | NNO | 573 | 0.0 |
| 03.03.2025 | 13:38 | 11.6 | 47 | 0.7 | 1028.4 | 4.7 | N | 471 | 0.0 |
| 03.03.2025 | 13:43 | 11.6 | 47 | 0.7 | 1028.3 | 3.2 | NNW | 564 | 0.0 |
| 03.03.2025 | 13:48 | 11.6 | 47 | 0.7 | 1028.2 | 6.5 | NO | 561 | 0.0 |
| 03.03.2025 | 13:53 | 11.7 | 47 | 0.8 | 1028.1 | 3.2 | ONO | 557 | 0.0 |
| 03.03.2025 | 13:58 | 11.9 | 47 | 0.9 | 1028.0 | 0.0 | ONO | 552 | 0.0 |
| 03.03.2025 | 14:03 | 12.1 | 48 | 1.4 | 1027.9 | 3.2 | NO | 547 | 0.0 |
| 03.03.2025 | 14:08 | 12.0 | 45 | 0.4 | 1027.9 | 3.2 | ONO | 540 | 0.0 |
| 03.03.2025 | 14:13 | 12.0 | 46 | 0.7 | 1027.8 | 1.4 | O | 536 | 0.0 |
| 03.03.2025 | 14:18 | 12.1 | 43 | -0.1 | 1027.7 | 4.7 | OSO | 529 | 0.0 |
| 03.03.2025 | 14:23 | 12.2 | 44 | 0.3 | 1027.6 | 1.4 | ONO | 520 | 0.0 |
| 03.03.2025 | 14:28 | 12.3 | 43 | 0.1 | 1027.6 | 6.5 | O | 513 | 0.0 |
| 03.03.2025 | 14:33 | 12.4 | 44 | 0.5 | 1027.5 | 3.2 | NNO | 508 | 0.0 |
| 03.03.2025 | 14:38 | 12.5 | 44 | 0.6 | 1027.5 | 6.5 | NO | 455 | 0.0 |
| 03.03.2025 | 14:43 | 12.4 | 44 | 0.5 | 1027.4 | 7.9 | NO | 492 | 0.0 |
| 03.03.2025 | 14:48 | 12.5 | 42 | -0.1 | 1027.4 | 4.7 | NNW | 485 | 0.0 |
| 03.03.2025 | 14:53 | 12.5 | 43 | 0.3 | 1027.4 | 4.7 | NO | 476 | 0.0 |
| 03.03.2025 | 14:58 | 12.6 | 43 | 0.3 | 1027.3 | 1.4 | ONO | 466 | 0.0 |
| 03.03.2025 | 15:03 | 12.7 | 43 | 0.4 | 1027.3 | 6.5 | NNO | 455 | 0.0 |
| 03.03.2025 | 15:08 | 12.7 | 43 | 0.4 | 1027.2 | 1.4 | ONO | 443 | 0.0 |
| 03.03.2025 | 15:13 | 12.7 | 44 | 0.8 | 1027.2 | 4.7 | NNO | 436 | 0.0 |
| 03.03.2025 | 15:18 | 12.7 | 43 | 0.4 | 1027.2 | 6.5 | NO | 424 | 0.0 |
| 03.03.2025 | 15:23 | 12.7 | 43 | 0.4 | 1027.3 | 7.9 | NO | 413 | 0.0 |
| 03.03.2025 | 15:28 | 12.7 | 42 | 0.1 | 1027.2 | 6.5 | ONO | 399 | 0.0 |
| 03.03.2025 | 15:33 | 12.8 | 41 | -0.1 | 1027.2 | 4.7 | OSO | 392 | 0.0 |
| 03.03.2025 | 15:38 | 12.9 | 42 | 0.3 | 1027.2 | 3.2 | ONO | 380 | 0.0 |
| 03.03.2025 | 15:43 | 12.9 | 41 | 0.0 | 1027.2 | 6.5 | O | 371 | 0.0 |
| 03.03.2025 | 15:48 | 12.9 | 41 | 0.0 | 1027.2 | 6.5 | NO | 359 | 0.0 |
| 03.03.2025 | 15:53 | 12.9 | 42 | 0.3 | 1027.2 | 3.2 | ONO | 346 | 0.0 |
| 03.03.2025 | 15:58 | 12.9 | 40 | -0.4 | 1027.2 | 3.2 | NO | 334 | 0.0 |
| 03.03.2025 | 16:03 | 12.9 | 41 | 0.0 | 1027.2 | 1.4 | O | 320 | 0.0 |
| 03.03.2025 | 16:08 | 13.0 | 41 | 0.0 | 1027.1 | 1.4 | O | 308 | 0.0 |
| 03.03.2025 | 16:14 | 13.1 | 41 | 0.1 | 1027.1 | 1.4 | OSO | 295 | 0.0 |
| 03.03.2025 | 16:19 | 13.1 | 44 | 1.1 | 1027.1 | 3.2 | ONO | 283 | 0.0 |
| 03.03.2025 | 16:24 | 13.0 | 44 | 1.0 | 1027.0 | 3.2 | NW | 269 | 0.0 |
| 03.03.2025 | 16:29 | 12.8 | 44 | 0.8 | 1027.1 | 3.2 | NNW | 255 | 0.0 |
| 03.03.2025 | 16:34 | 12.7 | 44 | 0.8 | 1027.1 | 4.7 | NW | 241 | 0.0 |
| 03.03.2025 | 16:39 | 12.6 | 44 | 0.7 | 1027.1 | 4.7 | NNW | 225 | 0.0 |
| 03.03.2025 | 16:44 | 12.5 | 45 | 0.9 | 1027.1 | 3.2 | NW | 207 | 0.0 |
| 03.03.2025 | 16:49 | 12.5 | 45 | 0.9 | 1027.1 | 3.2 | NO | 190 | 0.0 |
| 03.03.2025 | 16:54 | 12.5 | 46 | 1.2 | 1027.1 | 4.7 | NW | 174 | 0.0 |
| 03.03.2025 | 16:59 | 12.5 | 45 | 0.9 | 1027.0 | 1.4 | NNW | 160 | 0.0 |
| 03.03.2025 | 17:04 | 12.4 | 46 | 1.1 | 1027.0 | 1.4 | NNW | 142 | 0.0 |
| 03.03.2025 | 17:09 | 12.3 | 45 | 0.7 | 1027.0 | 4.7 | NW | 127 | 0.0 |
| 03.03.2025 | 17:14 | 12.3 | 46 | 1.0 | 1026.9 | 3.2 | NW | 105 | 0.0 |
| 03.03.2025 | 17:19 | 12.2 | 47 | 1.2 | 1026.9 | 3.2 | NW | 69 | 0.0 |
| 03.03.2025 | 17:24 | 12.2 | 47 | 1.2 | 1026.8 | 3.2 | NW | 25 | 0.0 |
| 03.03.2025 | 17:29 | 11.9 | 47 | 0.9 | 1026.8 | 1.4 | NW | 35 | 0.0 |
| 03.03.2025 | 17:34 | 11.8 | 48 | 1.1 | 1026.8 | 0.0 | NW | 23 | 0.0 |
| 03.03.2025 | 17:39 | 11.7 | 48 | 1.0 | 1026.8 | 1.4 | NNW | 19 | 0.0 |
| 03.03.2025 | 17:44 | 11.5 | 48 | 0.9 | 1026.8 | 1.4 | NO | 19 | 0.0 |
| 03.03.2025 | 17:49 | 11.3 | 49 | 1.0 | 1026.8 | 0.0 | NO | 19 | 0.0 |
| 03.03.2025 | 17:54 | 11.1 | 51 | 1.3 | 1026.9 | 0.0 | NO | 14 | 0.0 |
| 03.03.2025 | 17:59 | 10.8 | 52 | 1.3 | 1026.9 | 0.0 | NO | 12 | 0.0 |
| 03.03.2025 | 18:04 | 10.5 | 53 | 1.3 | 1026.9 | 1.4 | NO | 11 | 0.0 |
| 03.03.2025 | 18:09 | 10.2 | 54 | 1.3 | 1026.9 | 1.4 | NO | 9 | 0.0 |
| 03.03.2025 | 18:14 | 9.8 | 56 | 1.4 | 1026.9 | 0.0 | NO | 7 | 0.0 |
| 03.03.2025 | 18:19 | 9.4 | 58 | 1.6 | 1027.0 | 0.0 | NO | 5 | 0.0 |
| 03.03.2025 | 18:24 | 9.0 | 58 | 1.2 | 1027.0 | 0.0 | NO | 0 | 0.0 |
| 03.03.2025 | 18:29 | 8.6 | 60 | 1.3 | 1027.0 | 0.0 | NO | 0 | 0.0 |
| 03.03.2025 | 18:34 | 8.2 | 61 | 1.1 | 1027.1 | 0.0 | NO | 0 | 0.0 |
| 03.03.2025 | 18:39 | 7.9 | 62 | 1.1 | 1027.1 | 0.0 | NO | 0 | 0.0 |
| 03.03.2025 | 18:44 | 7.7 | 63 | 1.1 | 1027.1 | 0.0 | NO | 0 | 0.0 |
| 03.03.2025 | 18:49 | 7.3 | 64 | 0.9 | 1027.1 | 0.0 | NO | 0 | 0.0 |
| 03.03.2025 | 18:54 | 7.1 | 64 | 0.7 | 1027.1 | 0.0 | NO | 0 | 0.0 |
| 03.03.2025 | 19:00 | 6.7 | 66 | 0.8 | 1027.1 | 0.0 | NO | 0 | 0.0 |
| 03.03.2025 | 19:05 | 6.4 | 67 | 0.7 | 1027.1 | 0.0 | NO | 0 | 0.0 |
| 03.03.2025 | 19:10 | 6.2 | 68 | 0.7 | 1027.3 | 0.0 | NO | 0 | 0.0 |
| 03.03.2025 | 19:15 | 5.9 | 68 | 0.4 | 1027.2 | 0.0 | NO | 0 | 0.0 |
| 03.03.2025 | 19:20 | 5.8 | 68 | 0.4 | 1027.3 | 0.0 | NO | 0 | 0.0 |
| 03.03.2025 | 19:25 | 5.6 | 69 | 0.4 | 1027.4 | 0.0 | NO | 0 | 0.0 |
| 03.03.2025 | 19:30 | 5.4 | 70 | 0.4 | 1027.5 | 0.0 | NO | 0 | 0.0 |
| 03.03.2025 | 19:35 | 5.3 | 70 | 0.3 | 1027.4 | 0.0 | NO | 0 | 0.0 |
| 03.03.2025 | 19:40 | 5.2 | 71 | 0.4 | 1027.5 | 0.0 | NO | 0 | 0.0 |
| 03.03.2025 | 19:45 | 5.1 | 71 | 0.3 | 1027.5 | 1.4 | N | 0 | 0.0 |
| 03.03.2025 | 19:50 | 5.1 | 71 | 0.3 | 1027.4 | 0.0 | NNO | 0 | 0.0 |
| 03.03.2025 | 19:55 | 5.1 | 71 | 0.3 | 1027.4 | 1.4 | N | 0 | 0.0 |
| 03.03.2025 | 20:00 | 4.9 | 72 | 0.3 | 1027.4 | 1.4 | N | 0 | 0.0 |
| 03.03.2025 | 20:05 | 4.8 | 72 | 0.2 | 1027.3 | 1.4 | N | 0 | 0.0 |
| 03.03.2025 | 20:10 | 4.7 | 73 | 0.3 | 1027.4 | 0.0 | NNO | 0 | 0.0 |
| 03.03.2025 | 20:15 | 4.6 | 73 | 0.2 | 1027.4 | 0.0 | NNO | 0 | 0.0 |
| 03.03.2025 | 20:20 | 4.4 | 74 | 0.2 | 1027.4 | 0.0 | N | 0 | 0.0 |
| 03.03.2025 | 20:25 | 4.3 | 75 | 0.3 | 1027.4 | 1.4 | N | 0 | 0.0 |
| 03.03.2025 | 20:30 | 4.2 | 75 | 0.2 | 1027.4 | 0.0 | N | 0 | 0.0 |
| 03.03.2025 | 20:35 | 4.1 | 76 | 0.3 | 1027.3 | 0.0 | N | 0 | 0.0 |
| 03.03.2025 | 20:40 | 3.9 | 76 | 0.1 | 1027.4 | 0.0 | N | 0 | 0.0 |
| 03.03.2025 | 20:45 | 3.8 | 76 | 0.0 | 1027.4 | 1.4 | N | 0 | 0.0 |
| 03.03.2025 | 20:50 | 3.7 | 77 | 0.0 | 1027.4 | 1.4 | N | 0 | 0.0 |
| 03.03.2025 | 20:55 | 3.6 | 78 | 0.1 | 1027.4 | 0.0 | NNO | 0 | 0.0 |
| 03.03.2025 | 21:00 | 3.4 | 78 | -0.1 | 1027.4 | 0.0 | NNO | 0 | 0.0 |
| 03.03.2025 | 21:05 | 3.3 | 78 | -0.2 | 1027.4 | 1.4 | NNO | 0 | 0.0 |
| 03.03.2025 | 21:10 | 3.2 | 78 | -0.3 | 1027.4 | 1.4 | N | 0 | 0.0 |
| 03.03.2025 | 21:15 | 3.1 | 79 | -0.2 | 1027.4 | 1.4 | NNW | 0 | 0.0 |
| 03.03.2025 | 21:20 | 3.1 | 79 | -0.2 | 1027.5 | 3.2 | NNO | 0 | 0.0 |
| 03.03.2025 | 21:25 | 3.1 | 79 | -0.2 | 1027.5 | 3.2 | NO | 0 | 0.0 |
| 03.03.2025 | 21:30 | 3.1 | 79 | -0.2 | 1027.4 | 3.2 | N | 0 | 0.0 |
| 03.03.2025 | 21:35 | 3.0 | 79 | -0.3 | 1027.4 | 0.0 | N | 0 | 0.0 |
| 03.03.2025 | 21:40 | 2.8 | 79 | -0.5 | 1027.3 | 1.4 | N | 0 | 0.0 |
| 03.03.2025 | 21:45 | 2.6 | 79 | -0.7 | 1027.3 | 1.4 | N | 0 | 0.0 |
| 03.03.2025 | 21:50 | 2.4 | 79 | -0.9 | 1027.4 | 1.4 | N | 0 | 0.0 |
| 03.03.2025 | 21:55 | 2.5 | 79 | -0.8 | 1027.3 | 1.4 | N | 0 | 0.0 |
| 03.03.2025 | 22:00 | 2.6 | 79 | -0.7 | 1027.3 | 3.2 | N | 0 | 0.0 |
| 03.03.2025 | 22:06 | 2.6 | 79 | -0.7 | 1027.4 | 1.4 | N | 0 | 0.0 |
| 03.03.2025 | 22:11 | 2.6 | 79 | -0.7 | 1027.4 | 4.7 | NNO | 0 | 0.0 |
| 03.03.2025 | 22:16 | 2.8 | 78 | -0.7 | 1027.6 | 3.2 | N | 0 | 0.0 |
| 03.03.2025 | 22:21 | 3.0 | 78 | -0.5 | 1027.6 | 3.2 | NNO | 0 | 0.0 |
| 03.03.2025 | 22:26 | 3.0 | 77 | -0.6 | 1027.7 | 3.2 | N | 0 | 0.0 |
| 03.03.2025 | 22:31 | 2.8 | 77 | -0.8 | 1027.6 | 1.4 | N | 0 | 0.0 |
| 03.03.2025 | 22:36 | 2.7 | 78 | -0.8 | 1027.6 | 0.0 | NO | 0 | 0.0 |
| 03.03.2025 | 22:41 | 2.5 | 79 | -0.8 | 1027.5 | 0.0 | NO | 0 | 0.0 |
| 03.03.2025 | 22:46 | 2.3 | 79 | -1.0 | 1027.5 | 1.4 | NO | 0 | 0.0 |
| 03.03.2025 | 22:51 | 2.2 | 79 | -1.1 | 1027.5 | 1.4 | NNO | 0 | 0.0 |
| 03.03.2025 | 22:56 | 2.0 | 79 | -1.3 | 1027.5 | 4.7 | NNO | 0 | 0.0 |
| 03.03.2025 | 23:01 | 2.0 | 80 | -1.1 | 1027.4 | 0.0 | NNO | 0 | 0.0 |
| 03.03.2025 | 23:06 | 1.9 | 80 | -1.2 | 1027.3 | 0.0 | NNO | 0 | 0.0 |
| 03.03.2025 | 23:11 | 1.8 | 79 | -1.5 | 1027.3 | 0.0 | NNO | 0 | 0.0 |
| 03.03.2025 | 23:16 | 1.6 | 79 | -1.6 | 1027.4 | 0.0 | NNO | 0 | 0.0 |
| 03.03.2025 | 23:21 | 1.4 | 79 | -1.8 | 1027.3 | 0.0 | NNO | 0 | 0.0 |
| 03.03.2025 | 23:26 | 1.2 | 80 | -1.9 | 1027.4 | 0.0 | NNO | 0 | 0.0 |
| 03.03.2025 | 23:31 | 0.9 | 80 | -2.2 | 1027.4 | 0.0 | NNO | 0 | 0.0 |
| 03.03.2025 | 23:36 | 0.9 | 81 | -2.0 | 1027.4 | 1.4 | NNO | 0 | 0.0 |
| 03.03.2025 | 23:41 | 0.9 | 81 | -2.0 | 1027.4 | 1.4 | NNO | 0 | 0.0 |
| 03.03.2025 | 23:46 | 0.8 | 81 | -2.1 | 1027.5 | 0.0 | NW | 0 | 0.0 |
| 03.03.2025 | 23:51 | 0.8 | 82 | -1.9 | 1027.4 | 0.0 | N | 0 | 0.0 |
| 03.03.2025 | 23:56 | 0.8 | 82 | -1.9 | 1027.4 | 1.4 | NNO | 0 | 0.0 |